Kezdőlap
METAR-TAF:

METAR-TAF

Repülőterek :

Barrancabermeja, Kolumbia

földrajzi szélesség: 07-01N, földrajzi hosszúság: 073-48W, magasság: 126 m

Jelenlegi meteorológiai megfigyelések

A jelentés 7 órával és 55 perccel ezelõtt készült, 23:00 UTC
Keleti szél 4 kt
Hőmérséklet 32°C
Páratartalom 63%
Légköri nyomás 1008 hPa
Látótávolság 10 km, vagy több
Kevés felhő 2000 lábon

METAR: SKEJ 122300Z 08004KT 9999 FEW020 32/24 Q1008

Idő: 01:55 (06:55 UTC)


TAF: hiányzik

Meteorológiai megfigyelések és előrejelzések több, mint 4000 repülőtéren (METAR és TAF jelentéseket).

A térképen piros és sárga pontok jelzik az elérhető meteorológiai állomásokat.

Mozgassa az egeret a pont fölött, hogy megjelenjen az állomás neve.

Azután kattintson az időjárási megfigyelések és előrejelzések megtekintéséhez.

A térkép megváltoztatása: kattintson a fekete keresztel jelölt zöld gombra ráközelítéshez, a vonallal jelölt zöld gombra távolításhoz, vagy a zöld nyilakra a szomszédos térképek eléréséhez.


METAR-TAF: